Time;durP1;ratioP1;P1;durP2;ratioP2;P2;SDS_P1;SDS_P2;PMS_P1;PMS_P2;Temp;Humidity;BMP_temperature;BMP_pressure;BME280_temperature;BME280_humidity;BME280_pressure;Samples;Min_cycle;Max_cycle;Signal;HPM_P1;HPM_P2
2022/11/08 00:02:23;;;;;;;51.75;33.15;;;;;;;12.72;67.78;95102.31;4159140;28;20483;-72
2022/11/08 00:04:25;;;;;;;48.00;31.48;;;;;;;12.71;67.80;95098.03;4160435;28;20076;-73
2022/11/08 00:15:48;;;;;;;50.65;32.45;;;;;;;12.77;67.58;95091.31;4148950;28;20136;-72
2022/11/08 00:17:50;;;;;;;51.58;32.70;;;;;;;12.77;67.25;95089.50;4160531;28;20069;-73
2022/11/08 00:19:52;;;;;;;53.38;33.85;;;;;;;12.80;67.69;95093.59;4160653;28;20454;-72
2022/11/08 00:21:53;;;;;;;44.95;31.58;;;;;;;12.79;67.44;95090.16;4160374;28;20054;-71
2022/11/08 00:23:55;;;;;;;47.60;33.20;;;;;;;12.80;67.44;95085.72;4160476;28;20124;-71
2022/11/08 00:25:57;;;;;;;50.92;32.22;;;;;;;12.82;67.51;95091.63;4160145;28;20050;-73
2022/11/08 00:27:58;;;;;;;46.80;30.52;;;;;;;12.79;67.37;95084.06;4157080;28;20161;-72
2022/11/08 00:30:00;;;;;;;52.58;34.55;;;;;;;12.76;67.52;95089.69;4158480;28;20088;-72
2022/11/08 00:32:03;;;;;;;52.28;33.45;;;;;;;12.72;67.64;95086.53;4160074;28;20172;-72
2022/11/08 00:34:05;;;;;;;48.42;32.03;;;;;;;12.68;67.37;95096.53;4160613;28;20085;-71
2022/11/08 00:36:07;;;;;;;56.33;35.30;;;;;;;12.60;67.61;95088.63;4158658;28;20212;-72
2022/11/08 00:38:09;;;;;;;54.05;35.00;;;;;;;12.61;68.02;95085.03;4160514;28;20049;-72
2022/11/08 00:40:11;;;;;;;54.38;34.65;;;;;;;12.62;67.78;95085.84;4159970;28;20132;-71
2022/11/08 00:42:12;;;;;;;53.55;32.95;;;;;;;12.65;67.96;95090.81;4160217;28;20132;-73
2022/11/08 00:44:14;;;;;;;49.90;32.60;;;;;;;12.66;67.85;95085.38;4159860;28;20041;-73
2022/11/08 00:46:16;;;;;;;44.90;31.83;;;;;;;12.70;67.49;95089.31;4159089;28;20493;-73
2022/11/08 00:48:18;;;;;;;46.92;31.55;;;;;;;12.70;67.52;95081.44;4160422;28;20145;-73
2022/11/08 00:50:20;;;;;;;49.90;32.35;;;;;;;12.73;67.63;95085.53;4160400;28;20418;-73
2022/11/08 00:52:21;;;;;;;50.50;33.13;;;;;;;12.75;67.22;95088.00;4159146;28;20620;-73
2022/11/08 00:54:23;;;;;;;51.97;33.67;;;;;;;12.74;67.49;95081.13;4159975;28;20487;-73
2022/11/08 00:56:25;;;;;;;50.42;32.63;;;;;;;12.73;67.70;95077.66;4159964;28;20530;-74
2022/11/08 00:58:28;;;;;;;51.42;33.95;;;;;;;12.76;67.61;95079.16;4142737;28;20046;-74
2022/11/08 01:00:30;;;;;;;47.53;32.08;;;;;;;12.76;67.27;95081.78;4158579;28;20057;-73
2022/11/08 01:02:31;;;;;;;51.45;32.95;;;;;;;12.73;67.57;95082.91;4161657;28;20131;-71
2022/11/08 01:04:33;;;;;;;51.13;33.20;;;;;;;12.75;67.16;95082.75;4163369;28;20171;-74
2022/11/08 01:06:35;;;;;;;48.72;33.28;;;;;;;12.78;67.33;95085.06;4162842;28;20057;-73
2022/11/08 01:08:37;;;;;;;49.67;33.33;;;;;;;12.77;67.53;95078.97;4161108;28;20046;-73
2022/11/08 01:10:43;;;;;;;46.08;30.17;;;;;;;12.79;67.61;95074.38;4155239;28;20049;-74
2022/11/08 01:12:45;;;;;;;47.58;32.10;;;;;;;12.79;67.15;95078.81;4163242;28;20076;-74
2022/11/08 01:14:47;;;;;;;54.15;33.25;;;;;;;12.74;67.57;95078.50;4163027;28;20107;-73
2022/11/08 01:16:48;;;;;;;47.83;31.13;;;;;;;12.76;67.49;95081.78;4161271;28;20063;-73
2022/11/08 01:18:52;;;;;;;50.28;32.40;;;;;;;12.71;67.86;95079.63;4163258;28;20057;-71
2022/11/08 01:20:54;;;;;;;49.35;33.30;;;;;;;12.58;67.95;95074.84;4165950;28;20522;-74
2022/11/08 01:22:55;;;;;;;44.25;31.92;;;;;;;12.52;68.35;95079.91;4163891;28;20057;-73
2022/11/08 01:24:57;;;;;;;52.17;33.10;;;;;;;12.54;68.33;95073.53;4162728;28;20061;-74
2022/11/08 01:26:59;;;;;;;50.63;33.45;;;;;;;12.58;68.44;95068.75;4161321;28;20072;-73
2022/11/08 01:29:00;;;;;;;49.60;32.95;;;;;;;12.61;68.38;95079.78;4161033;28;20640;-73
2022/11/08 01:31:08;;;;;;;51.22;32.63;;;;;;;12.61;68.23;95078.97;4161204;28;20133;-74
2022/11/08 01:33:10;;;;;;;51.25;33.30;;;;;;;12.65;68.01;95078.47;4162667;28;20107;-72
2022/11/08 01:35:12;;;;;;;51.00;34.72;;;;;;;12.67;68.24;95076.50;4162855;28;20045;-73
2022/11/08 01:37:14;;;;;;;47.05;33.33;;;;;;;12.68;68.40;95075.50;4161360;28;20116;-74
2022/11/08 01:39:15;;;;;;;49.42;33.63;;;;;;;12.68;68.39;95078.16;4162947;28;20454;-73
2022/11/08 01:41:19;;;;;;;45.33;32.15;;;;;;;12.68;67.98;95078.16;4162279;28;20049;-73
2022/11/08 01:43:30;;;;;;;;;;;;;;;12.67;67.96;95079.16;4161537;28;20199;-76
2022/11/08 01:46:12;;;;;;;51.92;34.42;;;;;;;12.68;68.31;95069.44;4161275;28;19979;-72
2022/11/08 01:48:14;;;;;;;45.50;31.33;;;;;;;12.69;68.01;95076.31;4152805;28;20050;-71
2022/11/08 01:50:17;;;;;;;46.38;32.70;;;;;;;12.70;68.22;95072.72;4162638;28;20183;-72
2022/11/08 01:52:28;;;;;;;49.28;32.60;;;;;;;12.69;68.12;95071.91;4162118;28;20287;-72
2022/11/08 01:54:34;;;;;;;51.08;31.83;;;;;;;12.68;67.98;95075.50;4148031;28;20163;-72
2022/11/08 01:56:36;;;;;;;50.53;32.63;;;;;;;12.67;68.38;95076.50;4161934;28;20056;-73
2022/11/08 01:58:39;;;;;;;51.25;33.72;;;;;;;12.67;68.49;95073.88;4160815;28;20054;-72
2022/11/08 02:00:41;;;;;;;47.40;33.00;;;;;;;12.68;68.39;95078.16;4160577;28;20049;-73
2022/11/08 02:02:45;;;;;;;45.97;31.77;;;;;;;12.70;68.43;95086.69;4162273;28;20513;-72
2022/11/08 02:04:47;;;;;;;52.15;32.72;;;;;;;12.72;68.13;95088.34;4160366;28;20050;-73
2022/11/08 02:06:49;;;;;;;49.33;32.40;;;;;;;12.68;68.13;95088.66;4161888;28;20487;-73
2022/11/08 02:08:50;;;;;;;48.78;31.52;;;;;;;12.54;68.60;95088.47;4160743;28;20491;-73
2022/11/08 02:10:53;;;;;;;51.38;33.20;;;;;;;12.46;68.95;95084.84;4159910;28;20140;-72
2022/11/08 02:12:55;;;;;;;49.00;33.13;;;;;;;12.48;69.15;95080.25;4158299;28;20661;-72
2022/11/08 02:14:57;;;;;;;44.47;30.63;;;;;;;12.52;69.16;95080.78;4160719;28;20053;-71
2022/11/08 02:16:58;;;;;;;45.67;32.05;;;;;;;12.58;69.01;95081.91;4143087;28;20593;-71
2022/11/08 02:19:00;;;;;;;50.13;31.65;;;;;;;12.59;68.77;95076.50;4144356;28;20074;-73
2022/11/08 02:21:23;;;;;;;43.30;32.10;;;;;;;12.59;69.01;95078.31;4158551;28;20438;-71
2022/11/08 02:23:43;;;;;;;44.78;31.13;;;;;;;12.62;68.99;95086.69;4161967;28;20136;-72
2022/11/08 02:25:45;;;;;;;51.78;33.13;;;;;;;12.62;68.46;95080.59;4149077;28;20046;-72
2022/11/08 02:27:47;;;;;;;48.05;32.00;;;;;;;12.61;68.79;95082.41;4161916;28;20503;-71
2022/11/08 02:29:52;;;;;;;48.85;32.17;;;;;;;12.56;68.94;95089.97;4160145;28;20042;-71
2022/11/08 02:31:55;;;;;;;47.63;32.50;;;;;;;12.55;69.11;95084.88;4157001;28;20045;-72
2022/11/08 02:33:56;;;;;;;50.83;31.67;;;;;;;12.53;69.30;95082.41;4159052;28;20522;-72
2022/11/08 02:35:58;;;;;;;47.40;31.90;;;;;;;12.55;69.48;95079.63;4144204;28;20057;-72
2022/11/08 02:38:00;;;;;;;49.08;33.13;;;;;;;12.57;69.42;95083.72;4159399;28;20049;-73
2022/11/08 02:40:03;;;;;;;46.55;30.58;;;;;;;12.61;69.24;95077.16;4160495;28;20053;-74
2022/11/08 02:42:05;;;;;;;45.67;31.85;;;;;;;12.63;69.32;95077.81;4160928;28;20063;-71
2022/11/08 02:44:07;;;;;;;45.50;30.85;;;;;;;12.64;68.86;95079.44;4142672;28;20077;-72
2022/11/08 02:46:08;;;;;;;45.60;32.63;;;;;;;12.65;68.97;95075.84;4158884;28;20495;-73
2022/11/08 02:48:10;;;;;;;48.92;31.00;;;;;;;12.68;69.00;95069.44;4159373;28;20132;-72
2022/11/08 02:50:12;;;;;;;46.45;33.20;;;;;;;12.67;69.32;95073.88;4160909;28;20049;-75
2022/11/08 02:52:14;;;;;;;46.42;30.20;;;;;;;12.68;68.46;95069.44;4160971;28;20530;-74
2022/11/08 02:54:16;;;;;;;49.17;32.72;;;;;;;12.70;68.91;95073.53;4158883;28;20143;-73
2022/11/08 02:56:17;;;;;;;44.03;32.28;;;;;;;12.73;68.92;95079.47;4160753;28;20171;-75
2022/11/08 02:58:19;;;;;;;51.47;32.15;;;;;;;12.75;68.65;95073.06;4161263;28;20456;-75
2022/11/08 03:00:22;;;;;;;45.20;31.50;;;;;;;12.70;68.85;95067.47;4164989;28;20049;-75
2022/11/08 03:02:23;;;;;;;49.80;31.60;;;;;;;12.58;68.88;95072.22;4159880;28;20057;-73
2022/11/08 03:04:26;;;;;;;50.22;31.73;;;;;;;12.52;69.39;95070.25;4160654;28;20128;-76
2022/11/08 03:06:27;;;;;;;48.00;32.13;;;;;;;12.48;69.75;95061.03;4159252;28;20108;-75
2022/11/08 03:08:30;;;;;;;46.28;31.77;;;;;;;12.46;69.79;95069.09;4160716;28;20053;-76
2022/11/08 03:10:32;;;;;;;46.03;33.00;;;;;;;12.46;70.00;95070.91;4158790;28;20057;-75
2022/11/08 03:12:34;;;;;;;41.88;29.73;;;;;;;12.43;69.92;95077.31;4160693;28;20053;-76
2022/11/08 03:14:35;;;;;;;44.95;31.58;;;;;;;12.38;70.18;95078.75;4143837;28;20120;-75
2022/11/08 03:16:37;;;;;;;49.95;33.17;;;;;;;12.38;70.12;95078.75;4148521;28;20575;-76
2022/11/08 03:18:39;;;;;;;48.25;33.28;;;;;;;12.33;70.08;95076.63;4160565;28;20140;-75
2022/11/08 03:20:40;;;;;;;52.35;33.47;;;;;;;12.26;70.60;95079.06;4160017;28;20137;-75
2022/11/08 03:22:43;;;;;;;49.33;32.33;;;;;;;12.26;70.61;95084.31;4160609;28;20168;-75
2022/11/08 03:24:44;;;;;;;48.42;32.35;;;;;;;12.06;71.05;95090.81;4158686;28;20064;-74
2022/11/08 03:26:46;;;;;;;47.53;32.53;;;;;;;11.93;71.47;95086.00;4159774;28;20073;-75
2022/11/08 03:28:48;;;;;;;44.70;31.25;;;;;;;11.90;72.10;95086.31;4160531;28;20486;-74
2022/11/08 03:30:51;;;;;;;44.88;32.47;;;;;;;11.87;72.23;95086.59;4158815;28;20136;-74
2022/11/08 03:32:53;;;;;;;49.60;34.38;;;;;;;11.82;72.56;95081.81;4158774;28;20139;-75
2022/11/08 03:34:54;;;;;;;49.10;33.60;;;;;;;11.70;73.31;95088.31;4160308;28;20085;-76
2022/11/08 03:36:56;;;;;;;54.72;36.92;;;;;;;11.57;74.22;95090.53;4158497;28;20049;-75
2022/11/08 03:38:57;;;;;;;49.00;35.58;;;;;;;11.50;74.93;95094.75;4159914;28;20123;-77
2022/11/08 03:40:59;;;;;;;53.85;35.75;;;;;;;11.48;74.83;95093.09;4159523;28;20053;-74
2022/11/08 03:43:01;;;;;;;53.30;37.72;;;;;;;11.53;75.14;95089.19;4154209;28;20488;-75
2022/11/08 03:45:03;;;;;;;52.05;35.53;;;;;;;11.58;74.96;95094.81;4151046;28;20199;-75
2022/11/08 03:47:04;;;;;;;52.25;37.17;;;;;;;11.70;75.22;95096.19;4159598;28;20686;-74
2022/11/08 03:49:06;;;;;;;56.28;36.90;;;;;;;11.83;74.75;95085.25;4158295;28;20214;-77
2022/11/08 03:51:08;;;;;;;54.10;36.33;;;;;;;11.98;74.91;95098.63;4158593;28;20080;-74
2022/11/08 03:53:10;;;;;;;55.28;39.13;;;;;;;12.10;73.97;95092.13;4159502;28;20057;-76
2022/11/08 03:55:12;;;;;;;52.47;35.33;;;;;;;12.22;73.43;95095.31;4159600;28;20124;-74
2022/11/08 03:57:14;;;;;;;48.50;33.45;;;;;;;12.29;72.94;95093.69;4158327;28;20388;-75
2022/11/08 03:59:16;;;;;;;52.25;35.10;;;;;;;12.35;73.24;95097.47;4160274;28;20155;-74
2022/11/08 04:01:17;;;;;;;50.90;35.50;;;;;;;12.37;72.92;95092.84;4157125;28;20057;-72
2022/11/08 04:03:19;;;;;;;63.35;43.60;;;;;;;12.41;72.68;95088.94;4160717;28;20163;-73
2022/11/08 04:05:21;;;;;;;65.47;47.15;;;;;;;12.43;72.88;95092.22;4158133;28;20158;-74
2022/11/08 04:07:22;;;;;;;63.17;45.42;;;;;;;12.46;72.75;95094.53;4158944;28;20081;-74
2022/11/08 04:09:24;;;;;;;85.72;61.35;;;;;;;12.52;72.45;95091.28;4159977;28;20105;-73
2022/11/08 04:16:07;;;;;;;92.22;67.93;;;;;;;12.63;72.27;95080.44;4158429;28;20229;-74
2022/11/08 04:22:49;;;;;;;97.45;71.18;;;;;;;12.68;71.73;95080.78;4159166;28;20068;-76
2022/11/08 04:24:51;;;;;;;92.43;67.25;;;;;;;12.70;71.85;95078.00;4159857;28;20085;-74
2022/11/08 04:26:53;;;;;;;87.32;59.95;;;;;;;12.74;72.02;95075.88;4158122;28;20057;-74
2022/11/08 04:28:55;;;;;;;82.22;58.05;;;;;;;12.77;72.24;95078.16;4158633;28;20049;-74
2022/11/08 04:31:03;;;;;;;88.22;62.90;;;;;;;12.79;72.25;95076.19;4158672;28;20069;-72
2022/11/08 04:33:05;;;;;;;89.30;62.08;;;;;;;12.74;72.23;95075.88;4158381;28;20139;-74
2022/11/08 04:35:07;;;;;;;89.57;59.60;;;;;;;12.69;72.60;95082.44;4160594;28;20475;-75
2022/11/08 04:37:09;;;;;;;80.25;56.33;;;;;;;12.67;72.53;95073.88;4160400;28;20049;-74
2022/11/08 04:39:11;;;;;;;77.15;54.40;;;;;;;12.62;73.15;95080.59;4159617;28;20649;-73
2022/11/08 04:41:14;;;;;;;81.90;56.97;;;;;;;12.60;72.95;95077.31;4162210;28;20152;-73
2022/11/08 04:43:15;;;;;;;79.70;57.85;;;;;;;12.62;72.88;95084.03;4162461;28;20057;-73
2022/11/08 04:45:17;;;;;;;81.30;53.70;;;;;;;12.60;72.87;95072.88;4155882;28;20638;-73
2022/11/08 04:47:19;;;;;;;73.43;52.15;;;;;;;12.59;72.76;95080.94;4161901;28;20148;-73
2022/11/08 04:49:21;;;;;;;84.20;50.22;;;;;;;12.59;72.89;95076.50;4162711;28;20065;-74
2022/11/08 04:51:30;;;;;;;78.50;52.47;;;;;;;12.61;72.74;95085.03;4163262;28;20133;-74
2022/11/08 04:53:32;;;;;;;85.72;54.08;;;;;;;12.63;73.10;95087.53;4162969;28;20495;-73
2022/11/08 04:55:35;;;;;;;72.28;47.17;;;;;;;12.66;72.98;95092.44;4161407;28;20080;-76
2022/11/08 04:57:37;;;;;;;72.07;46.53;;;;;;;12.65;72.74;95093.44;4148928;28;20053;-73
2022/11/08 04:59:39;;;;;;;64.38;44.92;;;;;;;12.67;72.47;95092.28;4161951;28;20045;-72
2022/11/08 05:01:41;;;;;;;75.22;50.03;;;;;;;12.67;72.82;95099.34;4160105;28;20128;-73
2022/11/08 05:03:44;;;;;;;68.78;48.53;;;;;;;12.67;72.86;95099.34;4162077;28;20052;-76
2022/11/08 05:05:46;;;;;;;66.22;45.28;;;;;;;12.65;72.79;95089.00;4161426;28;20069;-73
2022/11/08 05:07:48;;;;;;;58.38;43.15;;;;;;;12.67;72.33;95092.28;4162944;28;20306;-74
2022/11/08 05:09:49;;;;;;;60.67;40.80;;;;;;;12.67;72.91;95094.91;4161976;28;20045;-75
2022/11/08 05:11:51;;;;;;;61.15;40.97;;;;;;;12.67;73.08;95094.91;4161530;28;20080;-73
2022/11/08 05:13:53;;;;;;;65.97;41.35;;;;;;;12.67;72.90;95102.81;4162841;28;20128;-73
2022/11/08 05:16:00;;;;;;;57.60;40.60;;;;;;;12.72;72.68;95101.50;4160627;28;20045;-75
2022/11/08 05:18:02;;;;;;;63.28;42.05;;;;;;;12.64;72.66;95099.66;4163395;28;20133;-74
2022/11/08 05:24:45;;;;;;;64.88;43.75;;;;;;;12.62;73.30;95101.63;4162049;28;20053;-72
2022/11/08 05:26:47;;;;;;;70.50;45.33;;;;;;;12.69;73.07;95105.25;4161850;28;20232;-74
2022/11/08 05:28:49;;;;;;;59.80;42.80;;;;;;;12.61;73.08;95102.63;4161259;28;20049;-75
2022/11/08 05:30:53;;;;;;;66.85;43.13;;;;;;;12.58;73.08;95101.13;4161282;28;20046;-75
2022/11/08 05:32:57;;;;;;;58.53;42.03;;;;;;;12.45;73.50;95103.41;4162389;28;20471;-74
2022/11/08 05:34:59;;;;;;;71.50;44.90;;;;;;;12.43;73.37;95097.47;4162149;28;20057;-75
2022/11/08 05:37:02;;;;;;;70.20;47.50;;;;;;;12.46;73.70;95086.66;4160949;28;20115;-74
2022/11/08 05:39:03;;;;;;;70.53;45.38;;;;;;;12.54;73.78;95094.56;4161592;28;20065;-74
2022/11/08 05:41:08;;;;;;;63.13;41.33;;;;;;;12.60;73.83;95104.41;4161976;28;20505;-74
2022/11/08 05:43:10;;;;;;;76.40;50.17;;;;;;;12.61;73.69;95105.25;4161356;28;20077;-77
2022/11/08 05:45:12;;;;;;;76.93;52.15;;;;;;;12.57;73.58;95099.50;4160690;28;20471;-75
2022/11/08 05:47:13;;;;;;;85.30;53.55;;;;;;;12.46;73.92;95105.88;4162136;28;20092;-76
2022/11/08 05:49:15;;;;;;;79.22;51.95;;;;;;;12.39;74.36;95109.28;4160566;28;20528;-75
2022/11/08 05:51:18;;;;;;;73.07;51.25;;;;;;;12.27;74.75;95120.09;4161643;28;20141;-74
2022/11/08 05:53:19;;;;;;;80.05;50.88;;;;;;;12.04;75.63;95116.38;4160294;28;20049;-72
2022/11/08 05:55:21;;;;;;;78.78;50.03;;;;;;;11.87;76.13;95121.56;4161427;28;20093;-72
2022/11/08 05:57:23;;;;;;;70.10;50.40;;;;;;;11.74;77.35;95121.13;4161973;28;20145;-76
2022/11/08 05:59:25;;;;;;;78.82;50.58;;;;;;;11.86;77.09;95117.28;4160040;28;20082;-76
2022/11/08 06:01:27;;;;;;;68.85;48.50;;;;;;;12.04;76.82;95125.09;4159362;28;20502;-75
2022/11/08 06:03:29;;;;;;;72.28;46.90;;;;;;;12.09;76.42;95127.25;4160615;28;20100;-77
2022/11/08 06:05:32;;;;;;;65.30;45.20;;;;;;;12.04;75.52;95140.84;4160250;28;20468;-75
2022/11/08 06:07:34;;;;;;;67.82;45.70;;;;;;;12.12;75.71;95132.19;4161965;28;20415;-75
2022/11/08 06:09:36;;;;;;;64.60;46.17;;;;;;;12.23;75.71;95138.97;4161445;28;20050;-74
2022/11/08 06:11:38;;;;;;;62.88;43.40;;;;;;;12.34;75.32;95136.03;4161452;28;20511;-74
2022/11/08 06:13:40;;;;;;;75.00;46.63;;;;;;;12.40;74.30;95137.22;4161490;28;20158;-74
2022/11/08 06:15:42;;;;;;;72.22;47.67;;;;;;;12.44;74.53;95131.47;4158988;28;20136;-74
2022/11/08 06:17:44;;;;;;;73.18;47.15;;;;;;;12.52;73.95;95135.94;4161623;28;20511;-75
2022/11/08 06:19:45;;;;;;;65.68;45.08;;;;;;;12.61;73.71;95147.31;4161781;28;20123;-74
2022/11/08 06:21:47;;;;;;;64.15;45.22;;;;;;;12.64;73.79;95153.03;4161870;28;20454;-75
2022/11/08 06:23:53;;;;;;;52.05;36.58;;;;;;;12.69;73.36;95150.78;4162956;28;20065;-76
2022/11/08 06:25:55;;;;;;;61.42;39.00;;;;;;;12.72;72.77;95154.88;4164427;28;20053;-76
2022/11/08 06:27:58;;;;;;;53.80;35.25;;;;;;;12.55;73.72;95153.19;4161366;28;20112;-76
2022/11/08 06:30:01;;;;;;;50.72;36.28;;;;;;;12.44;73.56;95149.06;4158960;28;20150;-73
2022/11/08 06:32:03;;;;;;;50.05;35.47;;;;;;;12.00;75.27;95157.06;4160889;28;20517;-71
2022/11/08 06:34:05;;;;;;;54.85;37.22;;;;;;;12.07;76.05;95160.75;4160858;28;20241;-73
2022/11/08 06:36:07;;;;;;;50.80;33.75;;;;;;;12.20;75.49;95155.06;4158174;28;20092;-75
2022/11/08 06:38:08;;;;;;;54.00;36.03;;;;;;;12.28;75.41;95162.94;4159611;28;20160;-73
2022/11/08 06:40:10;;;;;;;52.00;34.53;;;;;;;12.38;75.17;95170.72;4160668;28;20099;-75
2022/11/08 06:42:13;;;;;;;52.53;30.75;;;;;;;12.37;74.72;95162.00;4161457;28;20057;-76
2022/11/08 06:44:14;;;;;;;47.05;31.85;;;;;;;12.44;74.83;95167.44;4149341;28;20081;-74
2022/11/08 06:46:16;;;;;;;44.33;32.08;;;;;;;12.44;75.13;95162.19;4158077;28;20061;-76
2022/11/08 06:48:18;;;;;;;44.75;32.40;;;;;;;12.52;74.68;95172.75;4159860;28;20059;-75
2022/11/08 06:50:19;;;;;;;46.13;31.45;;;;;;;12.63;74.32;95167.19;4161083;28;20389;-74
2022/11/08 06:52:21;;;;;;;43.20;31.05;;;;;;;12.72;74.55;95165.41;4161321;28;20132;-75
2022/11/08 06:54:23;;;;;;;42.42;28.77;;;;;;;12.79;73.72;95170.84;4161134;28;20064;-74
2022/11/08 06:56:28;;;;;;;43.40;29.58;;;;;;;12.80;73.64;95161.94;4160115;28;20049;-75
2022/11/08 06:58:30;;;;;;;41.75;29.70;;;;;;;12.84;73.49;95165.91;4142779;28;20089;-75
2022/11/08 07:00:31;;;;;;;45.28;30.02;;;;;;;12.89;73.09;95169.69;4157894;28;20503;-78
2022/11/08 07:02:33;;;;;;;44.15;31.23;;;;;;;12.97;72.66;95173.31;4161228;28;20072;-73
2022/11/08 07:04:35;;;;;;;43.45;29.58;;;;;;;13.01;73.29;95167.56;4161320;28;20053;-74
2022/11/08 07:06:37;;;;;;;45.75;31.45;;;;;;;13.04;72.70;95172.53;4160413;28;20089;-76
2022/11/08 07:08:39;;;;;;;46.05;29.50;;;;;;;13.03;72.77;95167.41;4159431;28;20076;-75
2022/11/08 07:10:40;;;;;;;41.63;28.73;;;;;;;13.02;72.63;95179.75;4155077;28;20064;-75
2022/11/08 07:12:42;;;;;;;43.00;28.00;;;;;;;13.03;72.44;95178.75;4161172;28;20045;-75
2022/11/08 07:14:44;;;;;;;46.40;30.42;;;;;;;13.05;72.49;95170.72;4159408;28;20049;-76
2022/11/08 07:16:45;;;;;;;44.50;30.80;;;;;;;13.09;72.64;95172.84;4158003;28;20133;-76
2022/11/08 07:18:49;;;;;;;42.30;29.10;;;;;;;13.15;72.09;95168.75;4160893;28;20049;-73
2022/11/08 07:20:51;;;;;;;48.22;29.60;;;;;;;13.19;71.91;95174.53;4160324;28;20484;-75
2022/11/08 07:22:54;;;;;;;51.20;31.08;;;;;;;13.17;72.22;95179.13;4159150;28;20083;-77
2022/11/08 07:24:56;;;;;;;44.83;30.07;;;;;;;13.18;72.68;95170.22;4159240;28;20477;-74
2022/11/08 07:26:57;;;;;;;46.67;30.65;;;;;;;13.15;72.39;95178.47;4142863;28;20287;-74
2022/11/08 07:28:59;;;;;;;43.90;29.55;;;;;;;13.17;72.28;95184.38;4142986;28;20076;-74
2022/11/08 07:31:03;;;;;;;46.33;28.90;;;;;;;13.15;72.55;95179.28;4151040;28;20136;-76
2022/11/08 07:33:05;;;;;;;43.95;30.52;;;;;;;13.18;72.36;95181.56;4160427;28;20221;-71
2022/11/08 07:35:07;;;;;;;42.00;29.35;;;;;;;13.21;71.96;95176.00;4160288;28;20144;-74
2022/11/08 07:37:08;;;;;;;40.40;29.85;;;;;;;13.19;72.07;95183.22;4160958;28;20640;-75
2022/11/08 07:39:10;;;;;;;44.28;29.95;;;;;;;13.18;72.50;95183.38;4158795;28;20550;-76
2022/11/08 07:41:12;;;;;;;42.35;29.25;;;;;;;13.19;72.43;95179.78;4158380;28;20295;-78
2022/11/08 07:43:14;;;;;;;41.75;27.52;;;;;;;13.19;72.31;95183.22;4154024;28;20050;-76
2022/11/08 07:45:16;;;;;;;45.78;29.05;;;;;;;13.17;72.11;95179.94;4153693;28;20090;-74
2022/11/08 07:47:17;;;;;;;39.53;27.85;;;;;;;12.97;72.70;95181.22;4160084;28;20569;-75
2022/11/08 07:49:19;;;;;;;44.28;29.35;;;;;;;12.94;73.77;95179.72;4160209;28;20049;-73
2022/11/08 07:51:21;;;;;;;41.25;27.95;;;;;;;12.91;73.36;95175.63;4159117;28;20099;-75
2022/11/08 07:53:23;;;;;;;38.42;28.15;;;;;;;12.94;73.27;95185.00;4159094;28;20143;-75
2022/11/08 07:55:26;;;;;;;47.47;28.67;;;;;;;12.96;73.50;95185.66;4159641;28;20535;-72
2022/11/08 07:57:27;;;;;;;44.85;29.83;;;;;;;12.96;73.48;95179.59;4158465;28;20471;-72
2022/11/08 07:59:29;;;;;;;48.53;32.05;;;;;;;13.01;73.48;95178.09;4160278;28;20505;-73
2022/11/08 08:01:30;;;;;;;51.63;34.75;;;;;;;12.65;74.42;95178.38;4159943;28;20060;-74
2022/11/08 08:03:32;;;;;;;50.20;33.63;;;;;;;12.73;74.82;95180.16;4167072;28;20047;-75
2022/11/08 08:05:37;;;;;;;44.25;31.05;;;;;;;12.81;74.39;95180.19;4151118;28;20060;-72
2022/11/08 08:07:38;;;;;;;51.70;32.25;;;;;;;12.90;74.28;95173.16;4160448;28;20124;-75
2022/11/08 08:09:40;;;;;;;41.35;29.63;;;;;;;13.02;74.26;95178.94;4159774;28;20137;-73
2022/11/08 08:11:42;;;;;;;44.20;29.85;;;;;;;13.14;73.76;95177.63;4161667;28;20121;-74
2022/11/08 08:13:44;;;;;;;41.72;29.15;;;;;;;13.16;73.50;95178.28;4163404;28;20447;-76
2022/11/08 08:15:45;;;;;;;42.45;28.50;;;;;;;13.22;73.23;95182.06;4161953;28;20051;-77
2022/11/08 08:17:48;;;;;;;36.25;26.98;;;;;;;13.22;72.70;95174.19;4162086;28;20139;-75
2022/11/08 08:19:49;;;;;;;39.88;25.52;;;;;;;13.21;73.20;95176.00;4163337;28;20067;-74
2022/11/08 08:21:51;;;;;;;38.40;26.25;;;;;;;13.24;73.33;95180.09;4163106;28;20054;-76
2022/11/08 08:23:53;;;;;;;42.00;26.20;;;;;;;13.27;73.24;95182.41;4161986;28;20131;-74
2022/11/08 08:25:55;;;;;;;37.55;26.02;;;;;;;13.33;73.25;95179.16;4160770;28;20045;-75
2022/11/08 08:27:59;;;;;;;40.03;26.33;;;;;;;13.42;73.12;95187.88;4160485;28;20085;-75
2022/11/08 08:30:01;;;;;;;37.38;26.00;;;;;;;13.47;72.83;95185.56;4162200;28;20064;-76
2022/11/08 08:32:03;;;;;;;44.45;28.85;;;;;;;13.48;72.65;95190.66;4163003;28;20049;-74
2022/11/08 08:34:05;;;;;;;42.20;27.15;;;;;;;13.43;73.13;95190.34;4163775;28;20473;-74
2022/11/08 08:36:07;;;;;;;39.38;28.08;;;;;;;13.45;73.55;95193.63;4163585;28;20076;-76
2022/11/08 08:38:10;;;;;;;40.75;24.42;;;;;;;13.47;72.76;95191.66;4161894;28;20160;-75
2022/11/08 08:40:12;;;;;;;;;;;;;;;13.55;72.73;95192.63;4162376;28;20054;-76
2022/11/08 08:42:14;;;;;;;43.08;27.98;;;;;;;13.41;72.93;95186.22;4163695;28;20379;-78
2022/11/08 08:44:15;;;;;;;38.25;25.88;;;;;;;13.44;73.19;95186.75;4150849;28;20096;-76
2022/11/08 08:46:17;;;;;;;31.63;24.15;;;;;;;13.51;73.03;95189.53;4157647;28;20049;-76
2022/11/08 08:48:19;;;;;;;37.42;23.08;;;;;;;13.48;72.76;95193.28;4139025;28;20045;-74
2022/11/08 08:50:22;;;;;;;32.40;23.48;;;;;;;13.52;72.77;95193.78;4163180;28;20125;-75
2022/11/08 08:52:23;;;;;;;31.90;21.95;;;;;;;13.57;72.49;95198.56;4161707;28;20077;-73
2022/11/08 08:54:25;;;;;;;31.27;21.95;;;;;;;13.63;72.46;95201.34;4163393;28;20049;-75
2022/11/08 08:56:30;;;;;;;32.63;23.52;;;;;;;13.59;72.68;95202.66;4161160;28;20136;-76
2022/11/08 08:58:31;;;;;;;36.50;25.80;;;;;;;13.43;73.25;95202.69;4162057;28;20099;-76
2022/11/08 09:00:33;;;;;;;37.00;25.38;;;;;;;13.26;74.44;95194.72;4161621;28;20042;-75
2022/11/08 09:02:55;;;;;;;35.67;24.30;;;;;;;13.30;74.75;95195.28;4163033;28;20522;-75
2022/11/08 09:04:57;;;;;;;32.30;22.70;;;;;;;13.02;74.10;95195.53;4161690;28;20073;-74
2022/11/08 09:06:59;;;;;;;35.47;23.77;;;;;;;13.00;74.51;95196.69;4162534;28;20080;-75
2022/11/08 09:09:01;;;;;;;34.15;23.05;;;;;;;13.16;74.42;95193.25;4161485;28;20500;-77
2022/11/08 09:11:03;;;;;;;42.25;23.80;;;;;;;13.33;73.99;95189.66;4160047;28;20137;-76
2022/11/08 09:13:05;;;;;;;33.70;24.20;;;;;;;13.38;73.18;95197.91;4161211;28;20552;-76
2022/11/08 09:15:07;;;;;;;35.10;23.52;;;;;;;13.24;73.23;95190.63;4161492;28;20092;-78
2022/11/08 09:17:08;;;;;;;40.50;24.02;;;;;;;12.94;74.62;95195.50;4162264;28;20064;-74
2022/11/08 09:19:10;;;;;;;35.75;24.55;;;;;;;12.86;74.83;95188.44;4162784;28;20077;-70
2022/11/08 09:21:12;;;;;;;41.42;26.45;;;;;;;12.84;75.08;95187.78;4162020;28;20506;-73
2022/11/08 09:23:17;;;;;;;34.10;24.17;;;;;;;13.00;75.44;95188.78;4162317;28;20057;-73
2022/11/08 09:25:19;;;;;;;34.42;24.83;;;;;;;13.03;74.54;95193.72;4144696;28;20671;-72
2022/11/08 09:27:21;;;;;;;35.05;24.50;;;;;;;13.06;73.54;95186.34;4161267;28;20049;-76
2022/11/08 09:29:22;;;;;;;35.08;25.73;;;;;;;13.17;73.89;95187.81;4161071;28;20069;-73
2022/11/08 09:31:24;;;;;;;38.72;25.83;;;;;;;13.36;73.53;95188.50;4160846;28;20063;-75
2022/11/08 09:33:26;;;;;;;40.63;27.02;;;;;;;13.55;73.21;95190.00;4162229;28;20079;-73
2022/11/08 09:35:32;;;;;;;43.33;28.73;;;;;;;13.72;71.86;95191.63;4160965;28;20128;-73
2022/11/08 09:37:34;;;;;;;42.67;29.00;;;;;;;13.88;71.58;95193.44;4162968;28;20095;-73
2022/11/08 09:39:36;;;;;;;42.25;29.98;;;;;;;14.01;70.98;95192.91;4162340;28;20050;-74
2022/11/08 09:42:04;;;;;;;42.33;29.05;;;;;;;14.04;70.67;95182.84;4162095;28;20431;-73
2022/11/08 09:44:23;;;;;;;40.13;26.63;;;;;;;14.16;70.26;95180.69;4136024;28;20494;-74
2022/11/08 09:46:53;;;;;;;40.90;27.63;;;;;;;14.09;70.12;95177.09;4159601;28;20140;-74
2022/11/08 09:48:56;;;;;;;34.15;23.52;;;;;;;14.07;70.52;95176.44;4162176;28;20207;-75